Time;durP1;ratioP1;P1;durP2;ratioP2;P2;SDS_P1;SDS_P2;PMS_P1;PMS_P2;Temp;Humidity;BMP_temperature;BMP_pressure;BME280_temperature;BME280_humidity;BME280_pressure;Samples;Min_cycle;Max_cycle;Signal;HPM_P1;HPM_P2
2023/05/14 00:00:32;;;;;;;;;;;14.80;45.00;;;;;;4999708;28;19920;-68
2023/05/14 00:02:58;;;;;;;;;;;14.80;45.00;;;;;;5000278;28;19921;-67
2023/05/14 00:05:23;;;;;;;;;;;14.70;45.30;;;;;;5000095;28;19921;-66
2023/05/14 00:07:49;;;;;;;;;;;14.70;45.50;;;;;;5000324;28;19925;-67
2023/05/14 00:10:14;;;;;;;;;;;14.70;46.20;;;;;;4999141;28;19914;-67
2023/05/14 00:12:40;;;;;;;;;;;14.60;46.90;;;;;;5000065;28;19984;-67
2023/05/14 00:15:05;;;;;;;;;;;14.60;47.00;;;;;;5000059;28;19922;-66
2023/05/14 00:17:31;;;;;;;;;;;14.60;46.70;;;;;;5001627;28;19914;-67
2023/05/14 00:19:56;;;;;;;;;;;14.60;46.40;;;;;;5000458;28;19914;-67
2023/05/14 00:22:22;;;;;;;;;;;14.60;46.30;;;;;;5001106;28;19918;-66
2023/05/14 00:24:47;;;;;;;;;;;14.50;46.20;;;;;;5000122;28;20348;-67
2023/05/14 00:27:13;;;;;;;;;;;14.40;46.40;;;;;;5000633;28;19920;-67
2023/05/14 00:29:39;;;;;;;;;;;14.40;46.40;;;;;;4999877;28;19936;-67
2023/05/14 00:32:05;;;;;;;;;;;14.40;46.80;;;;;;5001379;28;19918;-68
2023/05/14 00:34:30;;;;;;;;;;;14.30;46.80;;;;;;5000336;28;19914;-68
2023/05/14 00:36:56;;;;;;;;;;;14.30;46.70;;;;;;4999835;28;20337;-68
2023/05/14 00:39:21;;;;;;;;;;;14.20;46.60;;;;;;4999814;28;19914;-69
2023/05/14 00:41:46;;;;;;;;;;;14.20;46.50;;;;;;5000750;28;20347;-69
2023/05/14 00:44:12;;;;;;;;;;;14.20;46.60;;;;;;4998257;28;19917;-68
2023/05/14 00:46:37;;;;;;;;;;;14.10;46.70;;;;;;4999860;28;19914;-67
2023/05/14 00:49:03;;;;;;;;;;;14.00;46.90;;;;;;4998758;28;19918;-67
2023/05/14 00:51:28;;;;;;;;;;;14.00;47.00;;;;;;5000325;28;20094;-70
2023/05/14 00:53:54;;;;;;;;;;;14.00;47.10;;;;;;4999665;28;20290;-68
2023/05/14 00:56:20;;;;;;;;;;;14.00;47.00;;;;;;4983501;28;19918;-68
2023/05/14 00:58:45;;;;;;;;;;;13.90;46.90;;;;;;5001526;28;19917;-67
2023/05/14 01:01:13;;;;;;;;;;;13.80;46.80;;;;;;4979945;28;19918;-65
2023/05/14 01:03:39;;;;;;;;;;;13.80;46.90;;;;;;4973019;28;19921;-63
2023/05/14 01:06:16;;;;;;;;;;;13.80;47.40;;;;;;4958250;28;20292;-63
2023/05/14 01:09:00;;;;;;;;;;;13.80;47.50;;;;;;4992509;28;20320;-63
2023/05/14 01:11:31;;;;;;;;;;;13.80;47.40;;;;;;4991888;28;20504;-63
2023/05/14 01:14:15;;;;;;;;;;;13.70;47.20;;;;;;4991648;28;20399;-63
2023/05/14 01:16:42;;;;;;;;;;;13.70;47.20;;;;;;4992439;28;19926;-63
2023/05/14 01:19:15;;;;;;;;;;;13.60;47.20;;;;;;4991648;28;19952;-62
2023/05/14 01:21:42;;;;;;;;;;;13.60;47.50;;;;;;4992378;28;19961;-63
2023/05/14 01:24:07;;;;;;;;;;;13.60;47.90;;;;;;4991244;28;19910;-63
2023/05/14 01:26:33;;;;;;;;;;;13.50;47.90;;;;;;4992538;28;20320;-63
2023/05/14 01:29:08;;;;;;;;;;;13.50;47.70;;;;;;4990931;28;19918;-64
2023/05/14 01:31:35;;;;;;;;;;;13.50;47.70;;;;;;4973094;28;19941;-63
2023/05/14 01:34:01;;;;;;;;;;;13.50;47.70;;;;;;4973598;28;19921;-62
2023/05/14 01:36:27;;;;;;;;;;;13.40;47.70;;;;;;4991380;28;19924;-62
2023/05/14 01:38:54;;;;;;;;;;;13.40;47.80;;;;;;4991329;28;20288;-63
2023/05/14 01:41:20;;;;;;;;;;;13.40;48.30;;;;;;4985039;28;19914;-63
2023/05/14 01:43:46;;;;;;;;;;;13.40;48.40;;;;;;4991911;28;19937;-63
2023/05/14 01:46:11;;;;;;;;;;;13.30;48.60;;;;;;4992442;28;19910;-63
2023/05/14 01:48:37;;;;;;;;;;;13.30;48.50;;;;;;4991828;28;19926;-62
2023/05/14 01:51:02;;;;;;;;;;;13.30;48.60;;;;;;4991790;28;19914;-64
2023/05/14 01:53:28;;;;;;;;;;;13.30;48.60;;;;;;4991987;28;19921;-62
2023/05/14 01:55:53;;;;;;;;;;;13.20;48.70;;;;;;4991688;28;19922;-63
2023/05/14 01:58:19;;;;;;;;;;;13.20;48.60;;;;;;4992405;28;19920;-65
2023/05/14 02:00:44;;;;;;;;;;;13.20;48.60;;;;;;4976466;28;20009;-62
2023/05/14 02:03:10;;;;;;;;;;;13.10;48.50;;;;;;4975643;28;19914;-63
2023/05/14 02:05:35;;;;;;;;;;;13.10;48.50;;;;;;4976117;28;20379;-62
2023/05/14 02:08:00;;;;;;;;;;;13.10;48.40;;;;;;4976017;28;19921;-63
2023/05/14 02:10:26;;;;;;;;;;;13.00;48.80;;;;;;4975817;28;19964;-63
2023/05/14 02:12:51;;;;;;;;;;;13.00;48.80;;;;;;4975552;28;19914;-63
2023/05/14 02:15:17;;;;;;;;;;;13.00;49.30;;;;;;4975873;28;19925;-64
2023/05/14 02:17:42;;;;;;;;;;;13.00;49.20;;;;;;4975766;28;19915;-64
2023/05/14 02:20:09;;;;;;;;;;;13.00;49.00;;;;;;4975619;28;19949;-63
2023/05/14 02:22:34;;;;;;;;;;;13.00;49.00;;;;;;4975527;28;20012;-63
2023/05/14 02:25:03;;;;;;;;;;;13.00;49.00;;;;;;4975620;28;19945;-63
2023/05/14 02:27:28;;;;;;;;;;;13.00;49.30;;;;;;4975455;28;20366;-62
2023/05/14 02:29:55;;;;;;;;;;;13.00;49.80;;;;;;4975722;28;19914;-63
2023/05/14 02:32:20;;;;;;;;;;;13.10;50.60;;;;;;4975592;28;20374;-63
2023/05/14 02:34:46;;;;;;;;;;;13.10;51.20;;;;;;4975678;28;19965;-63
2023/05/14 02:37:11;;;;;;;;;;;13.10;51.00;;;;;;4994748;28;19984;-63
2023/05/14 02:39:37;;;;;;;;;;;13.10;50.60;;;;;;4994641;28;20361;-63
2023/05/14 02:42:03;;;;;;;;;;;13.10;50.40;;;;;;4994718;28;19968;-64
2023/05/14 02:44:30;;;;;;;;;;;13.00;51.30;;;;;;4994531;28;19918;-63
2023/05/14 02:47:01;;;;;;;;;;;13.00;51.10;;;;;;4994504;28;19925;-63
2023/05/14 02:49:26;;;;;;;;;;;13.00;50.80;;;;;;4994570;28;19910;-62
2023/05/14 02:51:53;;;;;;;;;;;12.90;50.60;;;;;;4994408;28;20366;-63
2023/05/14 02:54:18;;;;;;;;;;;12.90;50.70;;;;;;4994208;28;19914;-63
2023/05/14 02:56:44;;;;;;;;;;;12.90;51.30;;;;;;4994202;28;20424;-63
2023/05/14 02:59:09;;;;;;;;;;;12.90;51.10;;;;;;4994149;28;20428;-63
2023/05/14 03:01:35;;;;;;;;;;;12.80;50.80;;;;;;4994252;28;19996;-63
2023/05/14 03:04:00;;;;;;;;;;;12.80;51.20;;;;;;4994355;28;19914;-63
2023/05/14 03:06:25;;;;;;;;;;;12.80;51.00;;;;;;4994136;28;19909;-63
2023/05/14 03:08:54;;;;;;;;;;;12.70;50.80;;;;;;4993861;28;19968;-63
2023/05/14 03:11:25;;;;;;;;;;;12.70;50.70;;;;;;4994038;28;19972;-63
2023/05/14 03:13:51;;;;;;;;;;;12.70;50.80;;;;;;4994098;28;19918;-63
2023/05/14 03:16:19;;;;;;;;;;;12.70;50.90;;;;;;4993763;28;19918;-62
2023/05/14 03:18:45;;;;;;;;;;;12.70;50.90;;;;;;4993820;28;20069;-63
2023/05/14 03:21:11;;;;;;;;;;;12.60;50.80;;;;;;4993688;28;19916;-63
2023/05/14 03:23:36;;;;;;;;;;;12.60;50.70;;;;;;4993734;28;20001;-63
2023/05/14 03:26:02;;;;;;;;;;;12.60;50.80;;;;;;4993918;28;19925;-63
2023/05/14 03:28:28;;;;;;;;;;;12.60;50.70;;;;;;4994068;28;19914;-63
2023/05/14 03:30:53;;;;;;;;;;;12.60;50.70;;;;;;4993679;28;20366;-63
2023/05/14 03:33:18;;;;;;;;;;;12.60;50.70;;;;;;4993821;28;19921;-63
2023/05/14 03:35:44;;;;;;;;;;;12.50;50.80;;;;;;4967788;28;19918;-63
2023/05/14 03:38:09;;;;;;;;;;;12.50;50.70;;;;;;4974419;28;19937;-63
2023/05/14 03:40:35;;;;;;;;;;;12.50;50.70;;;;;;4974260;28;19940;-63
2023/05/14 03:43:00;;;;;;;;;;;12.50;50.70;;;;;;4974288;28;19976;-63
2023/05/14 03:45:27;;;;;;;;;;;12.50;50.80;;;;;;4973865;28;19915;-62
2023/05/14 03:47:53;;;;;;;;;;;12.50;51.30;;;;;;4974134;28;20004;-63
2023/05/14 03:50:18;;;;;;;;;;;12.60;51.40;;;;;;4973714;28;20009;-63
2023/05/14 03:52:44;;;;;;;;;;;12.70;51.50;;;;;;4974149;28;20342;-63
2023/05/14 03:55:10;;;;;;;;;;;12.80;51.60;;;;;;4973862;28;20361;-63
2023/05/14 03:57:35;;;;;;;;;;;12.90;51.70;;;;;;4974045;28;19918;-62
2023/05/14 04:00:01;;;;;;;;;;;13.00;52.10;;;;;;4973758;28;20365;-63
2023/05/14 04:02:26;;;;;;;;;;;13.10;52.30;;;;;;4973843;28;20016;-63
2023/05/14 04:04:52;;;;;;;;;;;13.30;52.50;;;;;;4973618;28;19961;-62
2023/05/14 04:07:17;;;;;;;;;;;13.40;52.70;;;;;;4973640;28;20001;-63
2023/05/14 04:09:43;;;;;;;;;;;13.60;52.80;;;;;;4973808;28;20069;-64
2023/05/14 04:12:08;;;;;;;;;;;13.80;53.00;;;;;;4973644;28;19914;-63
2023/05/14 04:14:34;;;;;;;;;;;14.10;53.10;;;;;;4973493;28;20309;-62
2023/05/14 04:16:59;;;;;;;;;;;14.30;53.10;;;;;;4955969;28;20016;-63
2023/05/14 04:19:24;;;;;;;;;;;14.60;53.30;;;;;;4973315;28;20386;-63
2023/05/14 04:21:50;;;;;;;;;;;14.80;53.30;;;;;;4955448;28;19984;-63
2023/05/14 04:24:15;;;;;;;;;;;15.10;53.30;;;;;;4973465;28;20374;-63
2023/05/14 04:26:41;;;;;;;;;;;15.30;53.30;;;;;;4973333;28;20329;-62
2023/05/14 04:29:06;;;;;;;;;;;15.60;53.40;;;;;;4973102;28;19914;-63
2023/05/14 04:31:32;;;;;;;;;;;15.90;53.40;;;;;;4973324;28;19910;-63
2023/05/14 04:33:57;;;;;;;;;;;16.20;53.40;;;;;;4973331;28;19965;-63
2023/05/14 04:36:23;;;;;;;;;;;16.50;53.50;;;;;;4986316;28;20381;-63
2023/05/14 04:38:48;;;;;;;;;;;16.80;53.20;;;;;;4993172;28;20289;-63
2023/05/14 04:41:13;;;;;;;;;;;17.20;53.10;;;;;;4992417;28;19910;-63
2023/05/14 04:43:39;;;;;;;;;;;17.50;52.70;;;;;;4992434;28;19936;-62
2023/05/14 04:46:04;;;;;;;;;;;17.80;52.30;;;;;;4992388;28;19913;-64
2023/05/14 04:48:30;;;;;;;;;;;18.20;51.80;;;;;;4992815;28;19965;-63
2023/05/14 04:50:55;;;;;;;;;;;18.40;51.50;;;;;;4992462;28;19925;-63
2023/05/14 04:53:21;;;;;;;;;;;18.70;51.30;;;;;;4992937;28;19918;-63
2023/05/14 04:55:46;;;;;;;;;;;19.10;50.90;;;;;;4992392;28;19917;-63
2023/05/14 04:58:12;;;;;;;;;;;19.50;50.70;;;;;;4992590;28;20008;-63
2023/05/14 05:00:38;;;;;;;;;;;19.90;50.40;;;;;;4992344;28;20000;-63
2023/05/14 05:03:04;;;;;;;;;;;20.30;49.90;;;;;;4992623;28;19921;-64
2023/05/14 05:05:29;;;;;;;;;;;20.70;49.40;;;;;;4992258;28;19914;-63
2023/05/14 05:07:55;;;;;;;;;;;21.20;48.70;;;;;;4992815;28;20005;-63
2023/05/14 05:10:20;;;;;;;;;;;21.60;47.90;;;;;;4992163;28;19914;-63
2023/05/14 05:12:46;;;;;;;;;;;22.00;47.40;;;;;;4992418;28;19914;-63
2023/05/14 05:15:11;;;;;;;;;;;22.40;46.70;;;;;;4991896;28;19918;-63
2023/05/14 05:17:37;;;;;;;;;;;22.80;45.80;;;;;;4994245;28;20301;-68
2023/05/14 05:20:04;;;;;;;;;;;23.30;45.20;;;;;;5006725;28;19918;-66
2023/05/14 05:22:30;;;;;;;;;;;23.70;44.50;;;;;;5005565;28;19917;-68
2023/05/14 05:24:55;;;;;;;;;;;24.10;43.70;;;;;;5005942;28;19918;-68
2023/05/14 05:27:21;;;;;;;;;;;24.50;42.90;;;;;;5005044;28;19962;-68
2023/05/14 05:29:46;;;;;;;;;;;24.90;42.20;;;;;;5004577;28;19923;-69
2023/05/14 05:32:12;;;;;;;;;;;25.20;40.70;;;;;;5006343;28;19914;-67
2023/05/14 05:34:37;;;;;;;;;;;25.50;40.40;;;;;;5009291;28;19914;-67
2023/05/14 05:37:04;;;;;;;;;;;25.80;39.50;;;;;;4990918;28;19918;-67
2023/05/14 05:39:33;;;;;;;;;;;26.20;38.80;;;;;;4989309;28;19914;-67
2023/05/14 05:42:00;;;;;;;;;;;26.50;38.10;;;;;;4989309;28;19921;-67
2023/05/14 05:44:25;;;;;;;;;;;26.70;36.90;;;;;;4988983;28;19922;-67
2023/05/14 05:46:50;;;;;;;;;;;26.70;36.30;;;;;;4991220;28;19990;-67
2023/05/14 05:49:16;;;;;;;;;;;26.60;36.00;;;;;;4991815;28;19953;-67
2023/05/14 05:51:41;;;;;;;;;;;26.70;36.60;;;;;;4990256;28;19918;-66
2023/05/14 05:54:07;;;;;;;;;;;27.00;36.70;;;;;;4988802;28;19914;-66
2023/05/14 05:56:32;;;;;;;;;;;27.40;36.30;;;;;;4986642;28;19937;-67
2023/05/14 05:58:57;;;;;;;;;;;27.90;35.60;;;;;;4982784;28;19925;-69
2023/05/14 06:01:23;;;;;;;;;;;28.40;35.20;;;;;;4981922;28;19917;-68
2023/05/14 06:03:48;;;;;;;;;;;28.90;35.20;;;;;;4983947;28;19914;-68
2023/05/14 06:06:14;;;;;;;;;;;29.50;34.60;;;;;;4983310;28;20271;-68
2023/05/14 06:08:39;;;;;;;;;;;30.10;34.10;;;;;;4985047;28;19914;-68
2023/05/14 06:11:05;;;;;;;;;;;30.70;33.60;;;;;;4985927;28;19968;-68
2023/05/14 06:13:30;;;;;;;;;;;31.30;33.10;;;;;;4968009;28;20278;-68
2023/05/14 06:15:56;;;;;;;;;;;31.90;32.30;;;;;;4982346;28;19918;-68
2023/05/14 06:18:21;;;;;;;;;;;32.40;30.70;;;;;;4980336;28;19946;-68
2023/05/14 06:20:47;;;;;;;;;;;32.70;28.90;;;;;;4981631;28;19921;-68
2023/05/14 06:23:12;;;;;;;;;;;32.90;28.50;;;;;;4983270;28;19939;-68
2023/05/14 06:25:37;;;;;;;;;;;33.30;28.60;;;;;;4979826;28;19922;-68
2023/05/14 06:28:03;;;;;;;;;;;33.70;28.10;;;;;;4980388;28;19921;-68
2023/05/14 06:30:28;;;;;;;;;;;34.00;27.50;;;;;;4981160;28;19925;-68
2023/05/14 06:32:54;;;;;;;;;;;34.30;27.10;;;;;;4979864;28;19964;-69
2023/05/14 06:35:20;;;;;;;;;;;34.60;26.30;;;;;;4984523;28;20337;-68
2023/05/14 06:37:45;;;;;;;;;;;34.80;25.90;;;;;;4997653;28;19925;-67
2023/05/14 06:40:11;;;;;;;;;;;35.10;26.00;;;;;;4997178;28;19936;-68
2023/05/14 06:42:37;;;;;;;;;;;35.30;25.30;;;;;;4998628;28;19913;-68
2023/05/14 06:45:03;;;;;;;;;;;35.30;24.90;;;;;;4998222;28;19940;-68
2023/05/14 06:47:28;;;;;;;;;;;35.40;24.50;;;;;;4999411;28;19953;-68
2023/05/14 06:49:57;;;;;;;;;;;35.40;24.10;;;;;;4998326;28;19914;-68
2023/05/14 06:52:23;;;;;;;;;;;35.30;23.80;;;;;;4998029;28;19917;-68
2023/05/14 06:54:48;;;;;;;;;;;35.20;24.20;;;;;;4998109;28;19914;-68
2023/05/14 06:57:14;;;;;;;;;;;35.30;24.10;;;;;;4998540;28;19918;-68
2023/05/14 06:59:39;;;;;;;;;;;35.20;23.80;;;;;;4998106;28;19914;-68
2023/05/14 07:02:06;;;;;;;;;;;35.00;23.50;;;;;;4997515;28;19922;-67
2023/05/14 07:04:31;;;;;;;;;;;34.80;23.50;;;;;;4996652;28;20361;-67
2023/05/14 07:06:56;;;;;;;;;;;34.40;23.10;;;;;;4998856;28;19921;-68
2023/05/14 07:09:22;;;;;;;;;;;33.90;23.40;;;;;;5000389;28;19925;-67
2023/05/14 07:11:47;;;;;;;;;;;33.40;23.80;;;;;;5001545;28;19937;-67
2023/05/14 07:14:13;;;;;;;;;;;32.80;24.10;;;;;;5001020;28;19914;-67
2023/05/14 07:16:40;;;;;;;;;;;32.30;24.40;;;;;;5000163;28;19921;-67
2023/05/14 07:19:06;;;;;;;;;;;31.90;24.90;;;;;;4999813;28;20374;-67
2023/05/14 07:21:35;;;;;;;;;;;31.60;25.30;;;;;;4999534;28;19917;-66
2023/05/14 07:24:01;;;;;;;;;;;31.20;25.60;;;;;;4999931;28;19918;-67
2023/05/14 07:26:26;;;;;;;;;;;30.80;25.80;;;;;;4999081;28;19910;-67
2023/05/14 07:28:52;;;;;;;;;;;30.40;26.30;;;;;;4999868;28;19913;-67
2023/05/14 07:31:18;;;;;;;;;;;30.00;26.60;;;;;;4999280;28;19981;-67
2023/05/14 07:33:43;;;;;;;;;;;29.50;27.30;;;;;;4997836;28;20290;-68
2023/05/14 07:36:08;;;;;;;;;;;29.30;27.50;;;;;;4985360;28;20005;-68
2023/05/14 07:38:34;;;;;;;;;;;29.10;27.90;;;;;;4977881;28;20322;-68
2023/05/14 07:40:59;;;;;;;;;;;29.00;28.40;;;;;;4979092;28;20005;-68
2023/05/14 07:43:25;;;;;;;;;;;29.00;28.70;;;;;;4979708;28;19925;-67
2023/05/14 07:45:51;;;;;;;;;;;28.90;28.90;;;;;;4983647;28;19921;-68
2023/05/14 07:48:16;;;;;;;;;;;28.90;29.30;;;;;;4986272;28;19969;-68
2023/05/14 07:50:42;;;;;;;;;;;29.20;29.50;;;;;;4985270;28;19934;-68
2023/05/14 07:53:08;;;;;;;;;;;29.40;29.40;;;;;;4984285;28;19917;-67
2023/05/14 07:55:33;;;;;;;;;;;29.80;29.40;;;;;;4982376;28;19922;-67
2023/05/14 07:57:58;;;;;;;;;;;30.30;29.20;;;;;;4982070;28;19936;-68
2023/05/14 08:00:24;;;;;;;;;;;30.80;28.70;;;;;;4980804;28;19969;-68
2023/05/14 08:02:50;;;;;;;;;;;31.20;28.10;;;;;;4981977;28;20049;-68
2023/05/14 08:05:16;;;;;;;;;;;31.60;27.80;;;;;;4981227;28;19945;-68
2023/05/14 08:07:42;;;;;;;;;;;32.00;27.10;;;;;;4980142;28;19918;-67
2023/05/14 08:10:07;;;;;;;;;;;32.20;26.60;;;;;;4979481;28;20424;-67
2023/05/14 08:12:33;;;;;;;;;;;32.40;26.60;;;;;;4978567;28;19964;-68
2023/05/14 08:14:58;;;;;;;;;;;32.80;26.50;;;;;;4977463;28;20004;-68
2023/05/14 08:17:24;;;;;;;;;;;33.20;26.20;;;;;;4977174;28;19974;-68
2023/05/14 08:19:49;;;;;;;;;;;33.50;24.80;;;;;;4977324;28;20385;-68
2023/05/14 08:22:15;;;;;;;;;;;33.70;23.40;;;;;;4976360;28;20420;-68
2023/05/14 08:24:41;;;;;;;;;;;33.70;23.50;;;;;;4976959;28;19918;-68
2023/05/14 08:27:07;;;;;;;;;;;33.60;22.70;;;;;;4970731;28;20353;-68
2023/05/14 08:29:33;;;;;;;;;;;33.80;23.00;;;;;;4989020;28;19918;-68
2023/05/14 08:31:58;;;;;;;;;;;34.00;23.20;;;;;;4992753;28;19914;-68
2023/05/14 08:34:24;;;;;;;;;;;34.20;22.40;;;;;;4989955;28;19918;-68
2023/05/14 08:36:50;;;;;;;;;;;34.40;22.10;;;;;;4991276;28;20016;-68
2023/05/14 08:39:15;;;;;;;;;;;34.40;21.90;;;;;;4976863;28;20816;-68
2023/05/14 08:41:41;;;;;;;;;;;34.40;21.90;;;;;;4989155;28;19914;-68
2023/05/14 08:44:11;;;;;;;;;;;34.60;21.90;;;;;;4995248;28;19957;-68
2023/05/14 08:46:37;;;;;;;;;;;34.80;21.90;;;;;;4993917;28;19936;-68
2023/05/14 08:49:15;;;;;;;;;;;35.10;21.90;;;;;;4990877;28;19924;-66
2023/05/14 08:51:41;;;;;;;;;;;35.30;21.60;;;;;;4992647;28;19968;-68
2023/05/14 08:54:07;;;;;;;;;;;35.40;21.00;;;;;;4994682;28;19957;-68
2023/05/14 08:56:33;;;;;;;;;;;35.30;20.80;;;;;;4979442;28;19981;-69
2023/05/14 08:58:58;;;;;;;;;;;35.40;20.90;;;;;;4976175;28;20009;-69
2023/05/14 09:01:24;;;;;;;;;;;35.50;20.70;;;;;;4982613;28;19917;-69
2023/05/14 09:03:50;;;;;;;;;;;35.80;21.10;;;;;;4994363;28;19997;-69
2023/05/14 09:06:16;;;;;;;;;;;36.00;20.80;;;;;;4993870;28;19925;-68
2023/05/14 09:08:41;;;;;;;;;;;36.20;20.20;;;;;;5002492;28;19918;-68
2023/05/14 09:11:07;;;;;;;;;;;36.20;20.00;;;;;;4998639;28;20301;-68
2023/05/14 09:13:35;;;;;;;;;;;36.10;19.70;;;;;;4998818;28;19921;-68
2023/05/14 09:16:01;;;;;;;;;;;36.00;20.10;;;;;;4999488;28;20017;-68
2023/05/14 09:18:26;;;;;;;;;;;36.10;20.40;;;;;;4999064;28;20365;-68
2023/05/14 09:20:52;;;;;;;;;;;36.20;20.50;;;;;;4999517;28;19918;-67
2023/05/14 09:23:17;;;;;;;;;;;36.70;20.60;;;;;;4993972;28;20301;-67
2023/05/14 09:25:43;;;;;;;;;;;37.00;20.00;;;;;;4995782;28;19918;-67
2023/05/14 09:28:08;;;;;;;;;;;37.30;19.80;;;;;;4986566;28;19974;-68
2023/05/14 09:30:35;;;;;;;;;;;37.50;19.50;;;;;;4998069;28;19920;-68
2023/05/14 09:33:02;;;;;;;;;;;37.60;19.10;;;;;;4985239;28;20362;-62
2023/05/14 09:35:28;;;;;;;;;;;37.70;19.10;;;;;;4984824;28;19953;-61
2023/05/14 09:37:54;;;;;;;;;;;37.70;19.10;;;;;;4996244;28;19960;-62
2023/05/14 09:40:20;;;;;;;;;;;37.90;19.30;;;;;;4995196;28;20063;-62
2023/05/14 09:42:47;;;;;;;;;;;38.10;19.20;;;;;;4993892;28;19972;-63
2023/05/14 09:45:13;;;;;;;;;;;38.20;18.60;;;;;;4985979;28;19925;-63
2023/05/14 09:47:39;;;;;;;;;;;38.30;18.40;;;;;;4990329;28;19917;-63
2023/05/14 09:50:05;;;;;;;;;;;38.40;17.90;;;;;;4993106;28;19973;-63
2023/05/14 09:52:30;;;;;;;;;;;38.60;17.70;;;;;;4976401;28;19969;-63
2023/05/14 09:54:56;;;;;;;;;;;38.80;17.70;;;;;;4989364;28;19955;-63
2023/05/14 09:57:21;;;;;;;;;;;39.10;17.80;;;;;;4995397;28;19917;-62
2023/05/14 09:59:47;;;;;;;;;;;39.30;17.60;;;;;;4995061;28;20293;-62
2023/05/14 10:02:21;;;;;;;;;;;39.50;17.30;;;;;;4995581;28;20364;-63
2023/05/14 10:04:48;;;;;;;;;;;39.80;17.10;;;;;;4983436;28;19918;-62
2023/05/14 10:07:15;;;;;;;;;;;40.00;16.70;;;;;;4995441;28;20357;-62
2023/05/14 10:09:42;;;;;;;;;;;40.30;16.50;;;;;;4986894;28;19915;-61
2023/05/14 10:12:07;;;;;;;;;;;40.40;16.10;;;;;;4975898;28;20281;-62
2023/05/14 10:14:39;;;;;;;;;;;40.50;16.10;;;;;;4975791;28;19918;-62
2023/05/14 10:17:05;;;;;;;;;;;40.40;15.70;;;;;;4975915;28;19918;-61
2023/05/14 10:19:32;;;;;;;;;;;40.10;15.70;;;;;;4974620;28;20358;-63
2023/05/14 10:22:05;;;;;;;;;;;39.80;16.30;;;;;;4981885;28;19925;-63
2023/05/14 10:24:31;;;;;;;;;;;39.80;16.70;;;;;;4983840;28;19917;-63
2023/05/14 10:26:57;;;;;;;;;;;39.90;16.10;;;;;;4995205;28;19914;-63
2023/05/14 10:29:36;;;;;;;;;;;39.70;16.20;;;;;;4980809;28;19921;-64
2023/05/14 10:32:05;;;;;;;;;;;39.80;16.40;;;;;;4975423;28;19921;-63
2023/05/14 10:34:32;;;;;;;;;;;39.90;16.10;;;;;;4975292;28;19939;-62
2023/05/14 10:37:01;;;;;;;;;;;40.10;15.90;;;;;;4975323;28;20270;-62
2023/05/14 10:39:39;;;;;;;;;;;40.30;15.80;;;;;;4975219;28;19921;-62
2023/05/14 10:42:05;;;;;;;;;;;40.50;15.80;;;;;;4993438;28;20354;-62
2023/05/14 10:44:33;;;;;;;;;;;40.70;15.70;;;;;;4993999;28;19972;-62
2023/05/14 10:47:01;;;;;;;;;;;40.70;15.50;;;;;;4994341;28;19918;-62
2023/05/14 10:49:26;;;;;;;;;;;40.70;15.50;;;;;;4993717;28;19914;-62
2023/05/14 10:51:52;;;;;;;;;;;40.40;15.30;;;;;;4961786;28;19914;-64
2023/05/14 10:54:17;;;;;;;;;;;39.40;14.70;;;;;;4992091;28;20440;-62
2023/05/14 10:56:46;;;;;;;;;;;38.40;15.40;;;;;;4985069;28;19929;-62
2023/05/14 10:59:11;;;;;;;;;;;37.50;16.20;;;;;;4994523;28;19913;-62
2023/05/14 11:01:39;;;;;;;;;;;37.00;16.90;;;;;;4985868;28;20246;-63
2023/05/14 11:04:05;;;;;;;;;;;37.20;17.40;;;;;;4994117;28;19918;-62
2023/05/14 11:06:31;;;;;;;;;;;37.60;17.40;;;;;;4992407;28;20289;-62
2023/05/14 11:08:57;;;;;;;;;;;38.00;17.30;;;;;;4994024;28;19980;-63
2023/05/14 11:11:26;;;;;;;;;;;38.60;17.40;;;;;;4992307;28;19914;-63
2023/05/14 11:13:52;;;;;;;;;;;39.20;17.10;;;;;;4994040;28;19921;-62
2023/05/14 11:16:21;;;;;;;;;;;39.70;16.80;;;;;;4992286;28;19918;-66
2023/05/14 11:18:46;;;;;;;;;;;39.80;16.30;;;;;;4994172;28;19918;-62
2023/05/14 11:21:12;;;;;;;;;;;39.40;16.10;;;;;;4992222;28;20293;-63
2023/05/14 11:23:37;;;;;;;;;;;39.20;16.50;;;;;;4994356;28;19965;-63
2023/05/14 11:26:03;;;;;;;;;;;39.30;16.30;;;;;;5006572;28;20451;-62
2023/05/14 11:28:28;;;;;;;;;;;39.50;16.10;;;;;;4992463;28;19914;-63
2023/05/14 11:30:54;;;;;;;;;;;39.60;16.00;;;;;;4983522;28;19984;-62
2023/05/14 11:33:20;;;;;;;;;;;39.50;16.00;;;;;;4993562;28;20384;-64
2023/05/14 11:35:45;;;;;;;;;;;39.70;16.00;;;;;;4992444;28;19930;-62
2023/05/14 11:38:15;;;;;;;;;;;39.90;16.10;;;;;;4993995;28;20001;-62
2023/05/14 11:40:40;;;;;;;;;;;40.30;16.10;;;;;;4974059;28;20052;-63
2023/05/14 11:43:07;;;;;;;;;;;40.80;16.10;;;;;;4974389;28;19996;-63
2023/05/14 11:45:32;;;;;;;;;;;41.00;15.60;;;;;;4976577;28;20422;-62
2023/05/14 11:47:58;;;;;;;;;;;40.80;15.30;;;;;;4993584;28;19922;-62
2023/05/14 11:50:23;;;;;;;;;;;40.80;15.50;;;;;;4992037;28;19936;-64
2023/05/14 11:52:49;;;;;;;;;;;41.10;15.70;;;;;;4993843;28;20385;-63
2023/05/14 11:55:15;;;;;;;;;;;41.40;15.50;;;;;;5007622;28;19921;-63
2023/05/14 11:57:41;;;;;;;;;;;40.80;14.90;;;;;;4993386;28;20360;-64
2023/05/14 12:00:07;;;;;;;;;;;40.10;15.60;;;;;;4992268;28;20300;-63
2023/05/14 12:02:33;;;;;;;;;;;39.70;15.80;;;;;;4974798;28;19914;-63
2023/05/14 12:04:59;;;;;;;;;;;38.90;16.00;;;;;;5012612;28;19917;-62
2023/05/14 12:07:27;;;;;;;;;;;38.10;16.50;;;;;;5007798;28;20281;-65
2023/05/14 12:09:52;;;;;;;;;;;37.20;17.10;;;;;;4991425;28;19973;-63
2023/05/14 12:12:19;;;;;;;;;;;36.40;17.60;;;;;;4978720;28;19922;-62
2023/05/14 12:14:45;;;;;;;;;;;35.70;18.40;;;;;;4974938;28;19929;-63
2023/05/14 12:17:14;;;;;;;;;;;35.00;18.90;;;;;;4992983;28;19918;-63
2023/05/14 12:19:40;;;;;;;;;;;34.50;19.50;;;;;;4991615;28;19914;-63
2023/05/14 12:22:06;;;;;;;;;;;34.30;20.00;;;;;;4993060;28;19925;-63
2023/05/14 12:24:32;;;;;;;;;;;34.10;20.30;;;;;;4991446;28;19972;-63
2023/05/14 12:27:00;;;;;;;;;;;33.80;20.60;;;;;;4992601;28;19945;-63
2023/05/14 12:29:25;;;;;;;;;;;33.70;20.80;;;;;;4992607;28;19917;-63
2023/05/14 12:31:51;;;;;;;;;;;33.80;20.80;;;;;;4992041;28;19920;-62
2023/05/14 12:34:16;;;;;;;;;;;34.30;20.80;;;;;;4992118;28;20340;-62
2023/05/14 12:36:42;;;;;;;;;;;34.80;20.50;;;;;;4992495;28;20573;-62
2023/05/14 12:39:08;;;;;;;;;;;35.30;20.00;;;;;;4990524;28;19924;-62
2023/05/14 12:41:34;;;;;;;;;;;35.80;19.40;;;;;;4991753;28;19991;-62
2023/05/14 12:44:02;;;;;;;;;;;35.70;18.60;;;;;;4990798;28;19918;-63
2023/05/14 12:46:28;;;;;;;;;;;35.30;18.60;;;;;;4992320;28;19971;-63
2023/05/14 12:48:53;;;;;;;;;;;35.20;19.00;;;;;;4991745;28;20016;-63
2023/05/14 12:51:19;;;;;;;;;;;35.10;19.30;;;;;;4992312;28;20408;-62
2023/05/14 12:53:44;;;;;;;;;;;35.20;19.50;;;;;;4991731;28;20011;-63
2023/05/14 12:56:10;;;;;;;;;;;35.10;19.20;;;;;;4992346;28;20378;-63
2023/05/14 12:58:36;;;;;;;;;;;35.00;19.30;;;;;;4986006;28;20381;-63
2023/05/14 13:01:01;;;;;;;;;;;35.20;19.30;;;;;;4973181;28;19965;-63
2023/05/14 13:03:27;;;;;;;;;;;35.40;19.50;;;;;;4984794;28;19913;-62
2023/05/14 13:05:53;;;;;;;;;;;35.30;19.50;;;;;;4992056;28;20404;-62
2023/05/14 13:08:20;;;;;;;;;;;35.20;19.60;;;;;;4991871;28;19936;-62
2023/05/14 13:10:46;;;;;;;;;;;35.20;19.60;;;;;;4992195;28;19957;-62
2023/05/14 13:13:13;;;;;;;;;;;35.20;19.70;;;;;;4990918;28;19983;-63
2023/05/14 13:15:39;;;;;;;;;;;35.20;19.60;;;;;;4992510;28;19940;-64
2023/05/14 13:18:04;;;;;;;;;;;35.00;19.80;;;;;;4991140;28;19914;-63
2023/05/14 13:20:30;;;;;;;;;;;34.90;20.00;;;;;;4991395;28;19914;-62
2023/05/14 13:22:55;;;;;;;;;;;34.90;19.90;;;;;;4985796;28;20012;-62
2023/05/14 13:25:21;;;;;;;;;;;35.10;20.00;;;;;;4992109;28;19921;-63
2023/05/14 13:27:49;;;;;;;;;;;35.20;20.00;;;;;;4991254;28;19920;-63
2023/05/14 13:30:16;;;;;;;;;;;35.10;20.20;;;;;;4991906;28;19949;-63
2023/05/14 13:32:41;;;;;;;;;;;34.80;19.80;;;;;;4990818;28;20403;-62
2023/05/14 13:35:07;;;;;;;;;;;34.60;20.10;;;;;;4992175;28;19922;-62
2023/05/14 13:37:32;;;;;;;;;;;34.50;20.30;;;;;;4991354;28;19922;-63
2023/05/14 13:39:58;;;;;;;;;;;34.30;20.40;;;;;;4991885;28;19914;-62
2023/05/14 13:42:23;;;;;;;;;;;34.10;20.40;;;;;;4978713;28;20380;-62
2023/05/14 13:44:48;;;;;;;;;;;34.00;20.70;;;;;;4981517;28;20439;-62
2023/05/14 13:47:14;;;;;;;;;;;34.20;20.90;;;;;;4991726;28;20056;-62
2023/05/14 13:49:39;;;;;;;;;;;34.30;20.60;;;;;;4991097;28;19925;-62
2023/05/14 13:52:05;;;;;;;;;;;34.70;20.10;;;;;;4992440;28;20364;-62
2023/05/14 13:54:30;;;;;;;;;;;34.90;20.00;;;;;;4999378;28;19925;-67
2023/05/14 13:56:56;;;;;;;;;;;34.70;19.70;;;;;;4997787;28;20008;-62
2023/05/14 13:59:22;;;;;;;;;;;34.30;20.10;;;;;;4991677;28;19968;-63
2023/05/14 14:01:48;;;;;;;;;;;34.10;20.60;;;;;;4991961;28;19975;-64
2023/05/14 14:04:15;;;;;;;;;;;33.80;20.90;;;;;;4994375;28;20524;-62
2023/05/14 14:06:40;;;;;;;;;;;33.80;20.90;;;;;;4995280;28;19924;-61
2023/05/14 14:09:06;;;;;;;;;;;34.00;20.70;;;;;;4995471;28;20304;-62